Tests — V7NV7 — position and weather

sailwx.info

Track history (hours):
 
Tides and Currents Weather Stations Pressure Air Temp Water Temp Dewpoint Dewpoint Depression Visibility Wind Speed Wind Dir Waves Ship Positions

Tests

Last reported at 2017-Oct-18 16:23 UTC. Time now 2017-Oct-22 14:03 UTC.
Position N 31°06' E 122°25'.

Length 37 m; draft 5.7 m.

Type: Cargo ship. MMSI: 438003028.

Date/timePositionNaut miles runAvg speedWind from/ knotsBaromVisibWave heightAir tempDewpointWater temp
2017-Oct-18 16:23N 31°06' E 122°25'410.5
2017-Oct-18 16:00N 31°06' E 122°21'510.7
2017-Oct-18 15:30N 31°08' E 122°15'510.1
2017-Oct-18 15:01N 31°11' E 122°10'9 9.4
2017-Oct-18 14:00N 31°15' E 122°00'4 8.9
2017-Oct-18 13:30N 31°16' E 121°55'5 9.5
2017-Oct-18 13:00N 31°17' E 121°50'510.3
2017-Oct-18 12:30N 31°19' E 121°44'510.7
2017-Oct-18 12:00N 31°21' E 121°38'611.2
2017-Oct-18 11:31N 31°24' E 121°33'5 9.3
2017-Oct-18 11:00N 31°27' E 121°28'510.9
2017-Oct-18 10:31N 31°31' E 121°24'510.3
2017-Oct-18 10:01N 31°34' E 121°19'612.5
2017-Oct-18 09:30N 31°38' E 121°14'714.0
2017-Oct-18 09:00N 31°43' E 121°07'3310.1
2017-Oct-18 05:42N 32°01' E 120°34'2 9.6
2017-Oct-18 05:30N 32°01' E 120°32'510.0
2017-Oct-18 05:00N 32°02' E 120°26'  
2017-Oct-08 22:01N 32°19' E 119°49'0 0.1
2017-Oct-08 21:58N 32°19' E 119°49'17 5.8
2017-Oct-08 19:05N 32°03' E 119°56'1 9.2
2017-Oct-08 19:00N 32°03' E 119°56'6 8.7
2017-Oct-08 18:16N 31°58' E 120°02'2 8.1
2017-Oct-08 17:58N 31°57' E 120°04'  
Track history (hours):
 
Tides and Currents Weather Stations Pressure Air Temp Water Temp Dewpoint Dewpoint Depression Visibility Wind Speed Wind Dir Waves Ship Positions

Tests

Last reported at 2017-Oct-18 16:23 UTC. Time now 2017-Oct-22 14:03 UTC.
Position N 31°06' E 122°25'.

Length 37 m; draft 5.7 m.

Type: Cargo ship. MMSI: 438003028.

Date/timePositionNaut miles runAvg speedWind from/ knotsBaromVisibWave heightAir tempDewpointWater temp
2017-Oct-18 16:23N 31°06' E 122°25'410.5
2017-Oct-18 16:00N 31°06' E 122°21'510.7
2017-Oct-18 15:30N 31°08' E 122°15'510.1
2017-Oct-18 15:01N 31°11' E 122°10'9 9.4
2017-Oct-18 14:00N 31°15' E 122°00'4 8.9
2017-Oct-18 13:30N 31°16' E 121°55'5 9.5
2017-Oct-18 13:00N 31°17' E 121°50'510.3
2017-Oct-18 12:30N 31°19' E 121°44'510.7
2017-Oct-18 12:00N 31°21' E 121°38'611.2
2017-Oct-18 11:31N 31°24' E 121°33'5 9.3
2017-Oct-18 11:00N 31°27' E 121°28'510.9
2017-Oct-18 10:31N 31°31' E 121°24'510.3
2017-Oct-18 10:01N 31°34' E 121°19'612.5
2017-Oct-18 09:30N 31°38' E 121°14'714.0
2017-Oct-18 09:00N 31°43' E 121°07'3310.1
2017-Oct-18 05:42N 32°01' E 120°34'2 9.6
2017-Oct-18 05:30N 32°01' E 120°32'510.0
2017-Oct-18 05:00N 32°02' E 120°26'  
2017-Oct-08 22:01N 32°19' E 119°49'0 0.1
2017-Oct-08 21:58N 32°19' E 119°49'17 5.8
2017-Oct-08 19:05N 32°03' E 119°56'1 9.2
2017-Oct-08 19:00N 32°03' E 119°56'6 8.7
2017-Oct-08 18:16N 31°58' E 120°02'2 8.1
2017-Oct-08 17:58N 31°57' E 120°04'  

Dump ship's entire track history